CheckWX is a tool to help pilots better visualize weather data.  It is not intended as a substitute for an official pre-flight weather briefing.

20:53:31 UTC

KEDW TAF
Edwards AFB Airport
Edwards, California, USA
TAF AMD KEDW 170113Z 1701/1724 24020G30KT 9999 SKC 520009 QNH2981INS BECMG 1703/1704 22012G18KT 9999 SKC QNH2986INS BECMG 1705/1706 22009KT 9999 SKC QNH2984INS BECMG 1717/1718 23012G18KT 9999 SKC QNH2983INS BECMG 1720/1721 23020G30KT 9999 SKC 520009 QNH2980INS TX35/1701Z TN20/1713Z LAST NO AMDS AFT 1701 NEXT 1910

Aug-17@
01:00 UTC

Aug-17 @ 01:00 UTC

Aug-17@
03:00 UTC

Aug-17 @ 03:00 UTC

TAF AMD KEDW 170113Z 1701/1724 24020G30KT 9999 SKC 520009 QNH2981INS

Expired

Wind
  • 240° at 20 KTS
  • {Gusting to 30 KTS
Cloud Levels
  • Clear skies
Turbulence
< Occasional moderate clear air turbulence expected at the surface extending to 9,000' AGL

Aug-17@
03:00 UTC

Aug-17 @ 03:00 UTC

Aug-17@
05:00 UTC

Aug-17 @ 05:00 UTC

BECMG 1703/1704 22012G18KT 9999 SKC QNH2986INS

Expired

Wind
  • 220° at 12 KTS
  • {Gusting to 18 KTS
Cloud Levels
  • Clear skies

Aug-17@
05:00 UTC

Aug-17 @ 05:00 UTC

Aug-17@
17:00 UTC

Aug-17 @ 17:00 UTC

BECMG 1705/1706 22009KT 9999 SKC QNH2984INS

Expired

Wind
  • 220° at 9 KTS
Cloud Levels
  • Clear skies

Aug-17@
17:00 UTC

Aug-17 @ 17:00 UTC

Aug-17@
20:00 UTC

Aug-17 @ 20:00 UTC

BECMG 1717/1718 23012G18KT 9999 SKC QNH2983INS

Expired

Wind
  • 230° at 12 KTS
  • {Gusting to 18 KTS
Cloud Levels
  • Clear skies

Aug-17@
20:00 UTC

Aug-17 @ 20:00 UTC

Aug-18@
00:00 UTC

Aug-18 @ 00:00 UTC

BECMG 1720/1721 23020G30KT 9999 SKC 520009 QNH2980INS TX35/1701Z TN20/1713Z LAST NO AMDS AFT 1701 NEXT 1910

Becoming

Becoming Conditions expected by Sat, Aug 17, 2019 @ 21:00 UTC

Wind
  • 230° at 20 KTS
  • {Gusting to 30 KTS
Cloud Levels
  • Clear skies
Turbulence
< Occasional moderate clear air turbulence expected at the surface extending to 9,000' AGL